Time;durP1;ratioP1;P1;durP2;ratioP2;P2;SDS_P1;SDS_P2;PMS_P1;PMS_P2;Temp;Humidity;BMP_temperature;BMP_pressure;BME280_temperature;BME280_humidity;BME280_pressure;Samples;Min_cycle;Max_cycle;Signal;HPM_P1;HPM_P2
2022/01/19 00:02:24;;;;;;;17.13;8.67;;;;;;;3.39;85.06;102564.22;5040256;28;20202;-71
2022/01/19 00:04:50;;;;;;;20.40;9.40;;;;;;;3.37;84.54;102573.00;5044445;28;20220;-71
2022/01/19 00:07:17;;;;;;;19.50;9.43;;;;;;;3.33;85.20;102569.50;5043382;28;20565;-71
2022/01/19 00:09:45;;;;;;;18.20;9.23;;;;;;;3.31;84.85;102578.28;5029789;28;20234;-71
2022/01/19 00:12:12;;;;;;;18.90;8.40;;;;;;;3.29;84.67;102577.41;5044037;28;20201;-71
2022/01/19 00:14:38;;;;;;;13.90;7.43;;;;;;;3.25;84.56;102579.16;5039208;28;20213;-71
2022/01/19 00:17:05;;;;;;;17.60;8.07;;;;;;;3.19;84.69;102573.94;5033621;28;20202;-71
2022/01/19 00:19:31;;;;;;;13.93;7.77;;;;;;;3.12;84.83;102580.09;5040577;28;20222;-71
2022/01/19 00:21:58;;;;;;;14.40;7.27;;;;;;;3.04;83.76;102566.94;5045828;28;20209;-71
2022/01/19 00:24:24;;;;;;;15.47;6.60;;;;;;;2.96;83.45;102554.66;5043444;28;20213;-71
2022/01/19 00:26:52;;;;;;;13.73;6.83;;;;;;;2.88;84.15;102553.78;5040629;28;20209;-71
2022/01/19 00:29:18;;;;;;;13.10;7.03;;;;;;;2.79;84.07;102533.63;5032495;28;20229;-70
2022/01/19 00:31:45;;;;;;;14.60;6.40;;;;;;;2.72;83.81;102527.50;5030182;28;20210;-71
2022/01/19 00:34:11;;;;;;;14.70;6.60;;;;;;;2.66;83.38;102508.22;5039334;28;20230;-71
2022/01/19 00:36:38;;;;;;;16.03;8.50;;;;;;;2.61;84.22;102502.09;5048101;28;20231;-71
2022/01/19 00:39:04;;;;;;;13.00;7.13;;;;;;;2.56;83.63;102504.72;5042579;28;20233;-71
2022/01/19 00:41:31;;;;;;;16.73;7.77;;;;;;;2.53;84.13;102507.34;5046465;28;20557;-71
2022/01/19 00:43:59;;;;;;;15.20;7.30;;;;;;;2.51;84.06;102510.88;5043262;28;20205;-71
2022/01/19 00:46:25;;;;;;;18.17;8.17;;;;;;;2.47;84.01;102499.47;5043158;28;20209;-71
2022/01/19 00:48:52;;;;;;;15.40;7.47;;;;;;;2.43;83.93;102492.47;5038179;28;20245;-70
2022/01/19 00:51:18;;;;;;;15.63;6.77;;;;;;;2.37;83.73;102492.44;5042015;28;20216;-71
2022/01/19 00:53:45;;;;;;;12.80;6.63;;;;;;;2.29;83.46;102494.22;5052099;28;20592;-71
2022/01/19 00:56:11;;;;;;;14.30;6.33;;;;;;;2.21;82.99;102502.09;5038532;28;20213;-71
2022/01/19 00:58:38;;;;;;;13.37;6.07;;;;;;;2.12;82.88;102501.22;5045109;28;20209;-71
2022/01/19 01:01:06;;;;;;;11.10;6.50;;;;;;;2.04;83.54;102486.31;5047443;28;20209;-71
2022/01/19 01:03:32;;;;;;;17.77;7.47;;;;;;;2.00;84.00;102488.91;5045686;28;20205;-71
2022/01/19 01:05:59;;;;;;;17.93;7.23;;;;;;;1.95;83.57;102486.31;5040610;28;20221;-71
2022/01/19 01:08:25;;;;;;;15.43;7.50;;;;;;;1.89;84.15;102495.94;5049905;28;20220;-71
2022/01/19 01:10:52;;;;;;;11.27;6.63;;;;;;;1.85;83.71;102491.53;5050982;28;20211;-71
2022/01/19 01:13:29;;;;;;;12.83;6.53;;;;;;;1.81;83.69;102487.13;5050484;28;20233;-71
2022/01/19 01:16:04;;;;;;;11.97;7.03;;;;;;;1.75;84.33;102482.78;5047098;28;20288;-71
2022/01/19 01:18:33;;;;;;;20.47;7.17;;;;;;;1.72;83.86;102485.38;5042955;28;20303;-71
2022/01/19 01:21:02;;;;;;;17.23;7.40;;;;;;;1.70;84.19;102466.13;5057329;28;20205;-71
2022/01/19 01:23:32;;;;;;;16.63;6.97;;;;;;;1.69;84.18;102467.00;5047297;28;20212;-71
2022/01/19 01:25:59;;;;;;;16.80;7.77;;;;;;;1.67;84.55;102463.47;5038312;28;20493;-71
2022/01/19 01:28:25;;;;;;;20.57;8.37;;;;;;;1.64;84.99;102450.34;5048093;28;20210;-71
2022/01/19 01:30:52;;;;;;;13.20;7.93;;;;;;;1.65;84.92;102433.69;5034420;28;20680;-71
2022/01/19 01:33:19;;;;;;;16.57;8.57;;;;;;;1.64;84.99;102437.19;5053009;28;20237;-71
2022/01/19 01:35:47;;;;;;;21.07;8.30;;;;;;;1.63;85.54;102433.69;5034357;28;20225;-71
2022/01/19 01:38:14;;;;;;;19.47;8.13;;;;;;;1.62;85.87;102431.94;5034866;28;20252;-71
2022/01/19 01:40:41;;;;;;;16.40;9.03;;;;;;;1.62;85.92;102415.31;5047423;28;20252;-71
2022/01/19 01:43:09;;;;;;;18.37;8.40;;;;;;;1.61;85.86;102406.56;5051200;28;20663;-71
2022/01/19 01:45:39;;;;;;;15.63;8.07;;;;;;;1.60;86.14;102396.97;5050591;28;20204;-71
2022/01/19 01:48:10;;;;;;;23.03;9.20;;;;;;;1.59;85.87;102387.31;5044005;28;20809;-71
2022/01/19 01:53:29;;;;;;;18.83;8.67;;;;;;;1.57;86.33;102386.44;5045586;28;20224;-71
2022/01/19 01:55:58;;;;;;;18.20;9.57;;;;;;;1.56;86.77;102386.44;5049015;28;21011;-71
2022/01/19 01:58:25;;;;;;;19.77;9.07;;;;;;;1.54;86.60;102382.94;5050169;28;20210;-71
2022/01/19 02:00:53;;;;;;;22.83;7.97;;;;;;;1.53;86.91;102394.31;5046850;28;20206;-71
2022/01/19 02:03:20;;;;;;;15.50;7.47;;;;;;;1.49;87.03;102382.03;5040898;28;20218;-71
2022/01/19 02:08:42;;;;;;;17.17;8.00;;;;;;;1.39;87.01;102360.16;5033590;28;20576;-72
2022/01/19 02:11:35;;;;;;;16.40;7.53;;;;;;;1.34;86.99;102346.13;5042947;28;20201;-72
2022/01/19 02:22:51;;;;;;;16.23;7.63;;;;;;;1.07;86.72;102305.00;5050514;28;20748;-72
2022/01/19 02:25:18;;;;;;;14.00;7.63;;;;;;;1.05;87.12;102301.47;5046662;28;20672;-72
2022/01/19 02:41:26;;;;;;;15.43;7.60;;;;;;;0.91;87.20;102282.19;5039708;28;20699;-72
2022/01/19 02:43:55;;;;;;;12.97;6.87;;;;;;;0.86;87.05;102274.34;5037935;28;20210;-72
2022/01/19 02:46:40;;;;;;;14.37;7.37;;;;;;;0.83;87.36;102271.69;5049877;28;20659;-71
2022/01/19 02:49:14;;;;;;;17.57;7.23;;;;;;;0.82;87.71;102277.81;5045029;28;20747;-71
2022/01/19 02:51:42;;;;;;;14.23;7.20;;;;;;;0.81;87.71;102264.69;5033176;28;20601;-72
2022/01/19 02:54:11;;;;;;;18.00;8.47;;;;;;;0.78;87.64;102251.56;5049161;28;20237;-72
2022/01/19 02:56:40;;;;;;;17.73;7.20;;;;;;;0.76;87.64;102245.44;5052283;28;20671;-72
2022/01/19 02:59:15;;;;;;;20.80;8.00;;;;;;;0.74;87.54;102234.94;5045677;28;20732;-71
2022/01/19 03:09:55;;;;;;;17.03;7.17;;;;;;;0.59;87.67;102220.06;5055277;28;20240;-71
2022/01/19 03:12:22;;;;;;;15.93;7.27;;;;;;;0.58;87.65;102213.06;5054482;28;20213;-71
2022/01/19 03:14:48;;;;;;;15.03;7.83;;;;;;;0.57;87.56;102213.06;5050317;28;20221;-71
2022/01/19 03:17:15;;;;;;;15.17;6.67;;;;;;;0.54;87.78;102211.28;5049895;28;20209;-71
2022/01/19 03:19:42;;;;;;;15.17;6.83;;;;;;;0.51;87.57;102192.97;5033241;28;20230;-71
2022/01/19 03:22:08;;;;;;;14.10;7.57;;;;;;;0.49;87.83;102188.59;5050698;28;20282;-71
2022/01/19 03:24:38;;;;;;;13.60;6.53;;;;;;;0.46;88.01;102181.59;5049553;28;20206;-71
2022/01/19 03:27:05;;;;;;;17.70;7.37;;;;;;;0.46;87.78;102189.44;5050635;28;20265;-72
2022/01/19 03:29:32;;;;;;;15.67;7.50;;;;;;;0.46;87.84;102184.19;5042744;28;20234;-72
2022/01/19 03:31:58;;;;;;;14.33;6.77;;;;;;;0.44;87.70;102178.06;5032285;28;20214;-72
2022/01/19 03:34:25;;;;;;;19.17;7.90;;;;;;;0.43;87.95;102170.22;5041647;28;20225;-71
2022/01/19 03:36:51;;;;;;;15.20;7.80;;;;;;;0.41;87.94;102162.34;5037290;28;20216;-71
2022/01/19 03:39:18;;;;;;;15.37;7.47;;;;;;;0.40;88.13;102151.84;5044214;28;20327;-71
2022/01/19 03:41:46;;;;;;;13.90;7.40;;;;;;;0.38;87.92;102146.59;5044396;28;20210;-72
2022/01/19 03:44:12;;;;;;;15.00;6.93;;;;;;;0.38;88.17;102148.34;5047286;28;20201;-72
2022/01/19 03:46:53;;;;;;;14.13;7.27;;;;;;;0.34;87.96;102153.59;5041058;28;20689;-72
2022/01/19 03:49:24;;;;;;;16.07;8.37;;;;;;;0.29;87.93;102147.47;5036145;28;20654;-71
2022/01/19 03:51:50;;;;;;;14.90;7.77;;;;;;;0.27;88.07;102143.09;5035489;28;20201;-71
2022/01/19 03:54:17;;;;;;;18.60;7.83;;;;;;;0.23;88.18;102136.97;5038372;28;20225;-71
2022/01/19 03:56:43;;;;;;;14.53;8.00;;;;;;;0.21;88.13;102143.06;5034650;28;20201;-72
2022/01/19 03:59:11;;;;;;;12.67;7.00;;;;;;;0.18;88.03;102148.31;5040884;28;20230;-71
2022/01/19 04:01:38;;;;;;;18.63;7.43;;;;;;;0.14;87.86;102141.31;5045654;28;20201;-70
2022/01/19 04:04:23;;;;;;;18.93;7.57;;;;;;;0.10;88.13;102137.81;5048828;28;20201;-71
2022/01/19 04:07:00;;;;;;;19.33;7.40;;;;;;;0.08;88.27;102130.81;5044461;28;20211;-71
2022/01/19 04:09:27;;;;;;;15.97;8.03;;;;;;;0.08;88.39;102125.56;5031263;28;20730;-71
2022/01/19 04:11:55;;;;;;;15.43;7.47;;;;;;;0.05;88.45;102117.69;5038834;28;20631;-71
2022/01/19 04:14:25;;;;;;;16.97;7.63;;;;;;;0.03;88.41;102104.59;5029893;28;20244;-72
2022/01/19 04:16:52;;;;;;;13.40;7.23;;;;;;;0.02;88.53;102104.59;5044567;28;20691;-71
2022/01/19 04:19:26;;;;;;;15.47;7.60;;;;;;;-0.01;88.74;102108.97;5033447;28;20222;-71
2022/01/19 04:21:54;;;;;;;19.33;9.03;;;;;;;-0.01;88.77;102102.84;5041650;28;20592;-72
2022/01/19 04:24:22;;;;;;;18.33;7.53;;;;;;;-0.05;88.52;102094.09;5039367;28;20210;-72
2022/01/19 04:26:58;;;;;;;18.40;7.47;;;;;;;-0.06;88.84;102086.25;5043555;28;20205;-71
2022/01/19 04:29:26;;;;;;;18.73;7.77;;;;;;;-0.08;88.77;102075.75;5032562;28;20644;-71
2022/01/19 04:31:52;;;;;;;18.57;8.00;;;;;;;-0.10;88.82;102064.41;5040116;28;20219;-71
2022/01/19 04:34:19;;;;;;;15.13;8.00;;;;;;;-0.13;88.73;102059.16;5037967;28;21719;-70
2022/01/19 04:37:21;;;;;;;21.53;9.47;;;;;;;-0.14;88.79;102044.31;5042827;28;20212;-72
2022/01/19 04:48:23;;;;;;;17.83;7.73;;;;;;;-0.17;89.21;102061.75;5105705;27;20583;-70
2022/01/19 05:02:05;;;;;;;15.60;7.17;;;;;;;-0.36;89.19;102045.13;5041896;28;20200;-71
2022/01/19 05:04:37;;;;;;;21.50;7.07;;;;;;;-0.40;89.13;102044.25;5091341;28;20546;-70
2022/01/19 05:07:13;;;;;;;13.73;6.97;;;;;;;-0.41;89.18;102044.22;5106996;28;20231;-71
2022/01/19 05:09:58;;;;;;;20.20;8.57;;;;;;;-0.42;89.41;102045.97;5105431;28;20227;-70
2022/01/19 05:15:09;;;;;;;18.37;8.63;;;;;;;-0.46;89.46;102017.16;5092865;28;20236;-70
2022/01/19 05:17:37;;;;;;;16.83;8.57;;;;;;;-0.48;89.46;102008.41;5089904;28;20223;-69
2022/01/19 05:20:05;;;;;;;14.20;7.80;;;;;;;-0.48;89.67;101997.97;5098701;28;20228;-73
2022/01/19 05:22:32;;;;;;;22.60;7.87;;;;;;;-0.49;89.64;101989.22;5099949;28;20196;-73
2022/01/19 05:24:59;;;;;;;18.23;8.30;;;;;;;-0.47;90.02;101986.63;5092190;28;20207;-72
2022/01/19 05:27:25;;;;;;;17.37;8.07;;;;;;;-0.47;89.73;101973.53;5098432;28;20302;-70
2022/01/19 05:29:52;;;;;;;20.23;9.43;;;;;;;-0.47;89.97;101977.03;5088166;28;20225;-72
2022/01/19 05:32:19;;;;;;;17.70;9.13;;;;;;;-0.45;90.22;101969.19;5094972;28;20205;-72
2022/01/19 05:34:46;;;;;;;19.47;9.23;;;;;;;-0.45;90.56;101964.81;5102275;28;20600;-71
2022/01/19 05:37:13;;;;;;;19.87;9.40;;;;;;;-0.43;90.14;101956.97;5096523;28;20204;-72
2022/01/19 05:39:40;;;;;;;20.87;8.87;;;;;;;-0.43;90.40;101955.25;5106210;28;20227;-72
2022/01/19 05:42:13;;;;;;;18.33;9.00;;;;;;;-0.43;90.70;101951.75;5104152;28;20611;-72
2022/01/19 05:44:40;;;;;;;19.10;8.33;;;;;;;-0.44;90.58;101942.16;5088784;28;20206;-72
2022/01/19 05:47:07;;;;;;;21.87;10.33;;;;;;;-0.44;90.57;101939.53;5086534;28;20220;-72
2022/01/19 05:49:34;;;;;;;20.87;9.63;;;;;;;-0.44;90.86;101931.69;5100024;28;20692;-72
2022/01/19 05:52:00;;;;;;;24.13;10.00;;;;;;;-0.45;90.99;101924.69;5092711;28;20212;-72
2022/01/19 05:54:28;;;;;;;19.30;10.30;;;;;;;-0.44;91.14;101927.31;5100367;28;20614;-72
2022/01/19 05:56:55;;;;;;;21.43;10.13;;;;;;;-0.44;91.20;101935.16;5094396;28;20565;-72
2022/01/19 05:59:22;;;;;;;19.27;10.57;;;;;;;-0.44;91.08;101965.69;5080039;28;20232;-71
2022/01/19 06:01:48;;;;;;;23.87;10.60;;;;;;;-0.43;91.14;101960.47;5081254;28;20731;-72
2022/01/19 06:04:15;;;;;;;23.93;11.23;;;;;;;-0.38;91.80;101945.66;5075164;28;20685;-72
2022/01/19 06:06:41;;;;;;;21.57;11.27;;;;;;;-0.30;91.99;101935.19;5083211;28;20836;-72
2022/01/19 06:09:32;;;;;;;26.00;12.83;;;;;;;-0.21;92.38;101932.59;5089654;28;20232;-73
2022/01/19 06:11:57;;;;;;;26.10;11.93;;;;;;;-0.11;92.68;101916.00;5081650;28;20236;-72
2022/01/19 06:14:24;;;;;;;28.00;13.83;;;;;;;-0.03;93.07;101910.78;5074370;28;20219;-72
2022/01/19 06:16:50;;;;;;;27.63;12.67;;;;;;;0.05;93.17;101903.78;5079114;28;20207;-72
2022/01/19 06:19:19;;;;;;;26.50;14.27;;;;;;;0.11;93.35;101895.94;5080383;28;20224;-72
2022/01/19 06:21:46;;;;;;;25.10;13.27;;;;;;;0.19;93.59;101899.41;5077280;28;20966;-72
2022/01/19 06:24:12;;;;;;;20.97;12.37;;;;;;;0.30;93.98;101888.94;5077719;28;20201;-72
2022/01/19 06:26:39;;;;;;;23.60;12.67;;;;;;;0.48;95.19;101882.78;5081722;28;20236;-73
2022/01/19 06:29:06;;;;;;;23.13;12.07;;;;;;;0.60;95.34;101870.50;5082313;28;20725;-71
2022/01/19 06:31:33;;;;;;;16.87;11.30;;;;;;;0.67;95.26;101872.25;5090979;28;20216;-71
2022/01/19 06:34:00;;;;;;;20.07;12.57;;;;;;;0.76;95.46;101873.06;5073159;28;20235;-71
2022/01/19 06:36:26;;;;;;;15.53;10.33;;;;;;;0.84;95.30;101868.69;5088816;28;20205;-71
2022/01/19 06:38:53;;;;;;;17.43;10.97;;;;;;;0.90;95.55;101850.28;5085272;28;20220;-71
2022/01/19 06:41:19;;;;;;;14.50;10.50;;;;;;;0.96;95.50;101853.75;5086051;28;20196;-71
2022/01/19 06:43:46;;;;;;;16.93;10.33;;;;;;;1.02;96.02;101842.38;5086732;28;20211;-71
2022/01/19 06:46:14;;;;;;;13.83;10.17;;;;;;;1.08;95.84;101844.94;5080969;28;20223;-71
2022/01/19 06:48:41;;;;;;;12.97;8.83;;;;;;;1.12;96.30;101844.06;5088613;28;20231;-71
2022/01/19 06:51:07;;;;;;;18.90;10.13;;;;;;;1.15;95.87;101823.06;5077430;28;20680;-71
2022/01/19 06:53:34;;;;;;;17.27;11.87;;;;;;;1.16;95.76;101824.81;5071592;28;20600;-71
2022/01/19 06:56:00;;;;;;;14.00;8.77;;;;;;;1.20;95.73;101821.28;5088110;28;20677;-71
2022/01/19 06:58:28;;;;;;;11.37;7.90;;;;;;;1.24;96.26;101814.28;5075822;28;20204;-71
2022/01/19 07:00:55;;;;;;;12.87;8.10;;;;;;;1.28;96.03;101808.97;5082386;28;20200;-70
2022/01/19 07:03:24;;;;;;;11.73;8.13;;;;;;;1.37;95.81;101794.91;5078049;28;20215;-71
2022/01/19 07:05:51;;;;;;;13.93;8.80;;;;;;;1.42;95.89;101803.66;5083018;28;20205;-71
2022/01/19 07:08:17;;;;;;;13.07;8.30;;;;;;;1.45;95.60;101786.97;5086187;28;20235;-71
2022/01/19 07:10:44;;;;;;;10.50;7.50;;;;;;;1.49;95.84;101783.44;5083490;28;20224;-71
2022/01/19 07:13:11;;;;;;;13.60;8.63;;;;;;;1.52;95.20;101779.03;5076987;28;20208;-71
2022/01/19 07:15:40;;;;;;;10.57;8.27;;;;;;;1.54;95.08;101782.53;5075260;28;20661;-72
2022/01/19 07:18:07;;;;;;;12.17;8.93;;;;;;;1.57;95.02;101756.25;5077212;28;20729;-71
2022/01/19 07:20:34;;;;;;;11.63;8.70;;;;;;;1.61;95.35;101757.13;5072425;28;20698;-71
2022/01/19 07:23:01;;;;;;;10.53;8.50;;;;;;;1.64;94.60;101736.91;5085170;28;20211;-73
2022/01/19 07:25:29;;;;;;;11.60;8.37;;;;;;;1.66;95.00;101743.03;5075676;28;20637;-71
2022/01/19 07:27:56;;;;;;;11.37;8.10;;;;;;;1.71;94.60;101728.13;5085905;28;20228;-71
2022/01/19 07:30:24;;;;;;;15.93;9.33;;;;;;;1.72;94.88;101723.72;5082647;28;20326;-71
2022/01/19 07:32:51;;;;;;;12.73;10.00;;;;;;;1.71;94.53;101727.25;5078014;28;20633;-71
2022/01/19 07:35:18;;;;;;;14.23;11.07;;;;;;;1.69;94.38;101734.25;5076707;28;20201;-71
2022/01/19 07:37:46;;;;;;;14.57;9.97;;;;;;;1.68;94.38;101728.13;5076333;28;20209;-71
2022/01/19 07:40:13;;;;;;;11.47;9.63;;;;;;;1.68;94.32;101729.88;5076217;28;21490;-71
2022/01/19 07:42:40;;;;;;;13.13;10.60;;;;;;;1.69;94.72;101726.38;5082976;28;20579;-71
2022/01/19 07:45:07;;;;;;;10.80;8.93;;;;;;;1.70;94.17;101715.00;5075305;28;20316;-71
2022/01/19 07:47:34;;;;;;;11.73;9.03;;;;;;;1.72;94.50;101719.34;5070349;28;20657;-71
2022/01/19 07:50:00;;;;;;;11.90;8.90;;;;;;;1.73;94.38;101726.34;5071409;28;20235;-71
2022/01/19 07:52:27;;;;;;;12.43;10.13;;;;;;;1.74;93.86;101725.47;5078559;28;20200;-71
2022/01/19 07:54:55;;;;;;;15.90;12.37;;;;;;;1.74;94.38;101729.84;5081697;28;20201;-71
2022/01/19 07:57:22;;;;;;;13.93;10.57;;;;;;;1.72;93.59;101732.47;5071463;28;20204;-71
2022/01/19 07:59:48;;;;;;;11.07;8.97;;;;;;;1.74;93.98;101740.34;5074510;28;20245;-71
2022/01/19 08:02:16;;;;;;;24.57;14.80;;;;;;;1.76;93.71;101742.97;5080072;28;20212;-72
2022/01/19 08:04:43;;;;;;;13.93;11.10;;;;;;;1.78;93.64;101741.19;5071346;28;20262;-71
2022/01/19 08:07:10;;;;;;;13.00;10.13;;;;;;;1.79;93.42;101732.44;5086323;28;20231;-71
2022/01/19 08:09:36;;;;;;;16.70;10.07;;;;;;;1.80;93.81;101727.13;5077366;28;20231;-71
2022/01/19 08:12:06;;;;;;;13.70;10.07;;;;;;;1.82;93.79;101714.84;5068453;28;20205;-71
2022/01/19 08:14:32;;;;;;;14.00;10.00;;;;;;;1.83;93.78;101715.72;5074774;28;20705;-71
2022/01/19 08:16:59;;;;;;;8.47;7.10;;;;;;;1.85;93.52;101720.09;5073101;28;20204;-71
2022/01/19 08:19:26;;;;;;;12.80;10.20;;;;;;;1.85;93.74;101727.97;5069299;28;20229;-71
2022/01/19 08:21:52;;;;;;;16.40;11.03;;;;;;;1.87;93.12;101730.56;5080622;28;20197;-71
2022/01/19 08:24:19;;;;;;;16.83;11.13;;;;;;;1.89;93.00;101731.44;5086550;28;20211;-71
2022/01/19 08:26:45;;;;;;;15.50;11.13;;;;;;;1.92;93.70;101734.03;5074429;28;20307;-71
2022/01/19 08:29:13;;;;;;;12.57;10.53;;;;;;;1.93;92.93;101739.28;5077267;28;20700;-72
2022/01/19 08:31:40;;;;;;;12.57;10.13;;;;;;;1.95;93.07;101740.13;5085070;28;20204;-72
2022/01/19 08:34:06;;;;;;;11.63;9.47;;;;;;;1.99;93.72;101744.44;5082921;28;20290;-72
2022/01/19 08:36:33;;;;;;;11.20;8.50;;;;;;;2.02;93.00;101754.94;5074845;28;20204;-72
2022/01/19 08:39:00;;;;;;;9.77;8.53;;;;;;;2.06;92.92;101751.38;5077335;28;20231;-72
2022/01/19 08:41:27;;;;;;;8.87;7.50;;;;;;;2.09;93.44;101754.00;5084892;28;20204;-72
2022/01/19 08:43:53;;;;;;;8.53;7.23;;;;;;;2.09;92.74;101756.63;5073677;28;20289;-72
2022/01/19 08:46:21;;;;;;;8.00;7.13;;;;;;;2.14;93.08;101755.69;5074583;28;20212;-73
2022/01/19 08:48:48;;;;;;;8.60;7.33;;;;;;;2.18;93.02;101762.63;5077568;28;20228;-72
2022/01/19 08:51:15;;;;;;;8.40;7.43;;;;;;;2.19;92.51;101757.38;5072985;28;20205;-72
2022/01/19 08:53:41;;;;;;;9.57;7.97;;;;;;;2.22;92.25;101759.09;5080519;28;20209;-72
2022/01/19 08:56:08;;;;;;;9.47;7.63;;;;;;;2.23;92.85;101742.44;5071641;28;20208;-72
2022/01/19 08:58:34;;;;;;;7.37;6.37;;;;;;;2.24;92.36;101745.06;5071435;28;20220;-72
2022/01/19 09:01:01;;;;;;;7.83;6.90;;;;;;;2.26;92.01;101739.78;5083668;28;20212;-72
2022/01/19 09:03:29;;;;;;;7.80;6.60;;;;;;;2.27;91.86;101733.63;5080269;28;20209;-72
2022/01/19 09:05:56;;;;;;;7.20;6.20;;;;;;;2.29;92.27;101721.34;5080579;28;20215;-72
2022/01/19 09:08:22;;;;;;;9.10;7.27;;;;;;;2.31;91.87;101722.22;5069378;28;20231;-72
2022/01/19 09:10:50;;;;;;;9.50;7.47;;;;;;;2.34;91.69;101720.38;5079862;28;20227;-71
2022/01/19 09:13:17;;;;;;;8.50;6.80;;;;;;;2.38;91.59;101718.59;5078633;28;20204;-72
2022/01/19 09:15:44;;;;;;;8.23;7.30;;;;;;;2.41;91.87;101722.06;5069846;28;20208;-72
2022/01/19 09:18:10;;;;;;;11.20;7.83;;;;;;;2.43;91.87;101716.78;5074233;28;20221;-72
2022/01/19 09:20:38;;;;;;;10.13;7.50;;;;;;;2.44;91.07;101716.78;5089095;28;20220;-72
2022/01/19 09:23:05;;;;;;;7.23;6.27;;;;;;;2.45;91.62;101722.91;5071609;28;20684;-72
2022/01/19 09:25:32;;;;;;;9.63;7.20;;;;;;;2.49;91.82;101713.22;5077854;28;20205;-72
2022/01/19 09:27:59;;;;;;;8.87;6.37;;;;;;;2.51;91.02;101703.56;5086458;28;20224;-71
2022/01/19 09:30:26;;;;;;;7.43;6.73;;;;;;;2.52;91.25;101707.88;5070654;28;20705;-71
2022/01/19 09:33:06;;;;;;;6.53;5.77;;;;;;;2.55;91.56;101706.09;5069199;28;20208;-72
2022/01/19 09:35:49;;;;;;;7.50;5.57;;;;;;;2.57;91.38;101704.31;5071970;28;20200;-72
2022/01/19 09:38:17;;;;;;;6.53;5.57;;;;;;;2.58;90.51;101702.56;5082755;28;20196;-71
2022/01/19 09:40:44;;;;;;;6.80;6.07;;;;;;;2.60;91.15;101696.38;5072539;28;20221;-72
2022/01/19 09:43:10;;;;;;;6.40;5.43;;;;;;;2.61;90.41;101686.75;5074062;28;20205;-72
2022/01/19 09:45:38;;;;;;;5.97;4.97;;;;;;;2.65;90.66;101685.81;5088122;28;20211;-72
2022/01/19 09:48:05;;;;;;;5.73;4.90;;;;;;;2.67;90.03;101678.78;5084253;28;20621;-72
2022/01/19 09:50:32;;;;;;;5.57;4.70;;;;;;;2.68;90.74;101668.22;5078953;28;20224;-72
2022/01/19 09:52:59;;;;;;;5.80;5.17;;;;;;;2.72;89.82;101667.28;5086724;28;20592;-71
2022/01/19 09:55:27;;;;;;;6.43;5.30;;;;;;;2.74;90.51;101662.00;5090053;28;20219;-72
2022/01/19 09:57:54;;;;;;;4.87;4.27;;;;;;;2.76;89.42;101658.44;5086259;28;20201;-72
2022/01/19 10:00:21;;;;;;;6.23;4.77;;;;;;;2.78;89.39;101659.31;5082280;28;20725;-72
2022/01/19 10:03:11;;;;;;;5.17;4.50;;;;;;;2.84;89.77;101652.22;5073486;28;20211;-72
2022/01/19 10:05:53;;;;;;;7.30;5.20;;;;;;;2.87;89.10;101657.41;5072411;28;20577;-72
2022/01/19 10:08:27;;;;;;;6.00;5.23;;;;;;;2.89;89.08;101635.44;5085905;28;20229;-72
2022/01/19 10:11:25;;;;;;;5.73;5.13;;;;;;;2.91;89.55;101628.41;5085155;28;20226;-72
2022/01/19 10:17:00;;;;;;;4.83;4.40;;;;;;;3.00;88.66;101627.38;5082661;28;20223;-71
2022/01/19 10:19:29;;;;;;;5.53;4.93;;;;;;;3.03;88.85;101620.31;5073699;28;20229;-72
2022/01/19 10:22:02;;;;;;;5.67;4.77;;;;;;;3.07;88.44;101627.25;5077876;28;20209;-71
2022/01/19 10:24:46;;;;;;;5.70;5.03;;;;;;;3.11;88.55;101609.66;5083388;28;20670;-72
2022/01/19 10:27:37;;;;;;;5.07;4.57;;;;;;;3.15;88.67;101603.44;5081397;28;20208;-72
2022/01/19 10:30:27;;;;;;;5.77;5.17;;;;;;;3.19;88.71;101589.34;5082149;28;20312;-72
2022/01/19 10:32:56;;;;;;;4.90;4.47;;;;;;;3.21;87.88;101590.19;5071771;28;20208;-72
2022/01/19 10:35:26;;;;;;;4.37;3.97;;;;;;;3.24;88.49;101579.56;5071525;28;20676;-72
2022/01/19 10:38:14;;;;;;;6.50;5.77;;;;;;;3.28;88.37;101567.22;5080799;28;20209;-72
2022/01/19 10:40:44;;;;;;;5.60;5.03;;;;;;;3.31;87.92;101572.44;5075610;28;20229;-72
2022/01/19 10:43:30;;;;;;;6.10;5.07;;;;;;;3.36;87.85;101560.94;5080079;28;20598;-71
2022/01/19 10:45:59;;;;;;;6.30;4.67;;;;;;;3.40;87.66;101561.75;5086889;28;20200;-73
2022/01/19 10:48:38;;;;;;;5.53;5.03;;;;;;;3.40;86.94;101564.38;5088214;28;20228;-71
2022/01/19 10:51:10;;;;;;;5.97;5.23;;;;;;;3.43;86.58;101564.28;5080680;28;20219;-71
2022/01/19 10:53:37;;;;;;;5.90;5.20;;;;;;;3.43;86.69;101570.44;5077484;28;20197;-71
2022/01/19 10:56:05;;;;;;;5.07;4.10;;;;;;;3.45;86.88;101557.22;5083782;28;20200;-71
2022/01/19 10:58:34;;;;;;;6.00;5.43;;;;;;;3.49;86.02;101554.50;5085474;28;20257;-71
2022/01/19 11:01:01;;;;;;;7.00;5.30;;;;;;;3.53;86.47;101543.94;5080028;28;20204;-71
2022/01/19 11:03:29;;;;;;;5.87;5.27;;;;;;;3.54;85.58;101537.75;5085859;28;20219;-72
2022/01/19 11:05:58;;;;;;;6.23;5.63;;;;;;;3.55;85.55;101535.09;5071655;28;20212;-72
2022/01/19 11:08:27;;;;;;;11.37;10.17;;;;;;;3.56;84.91;101534.19;5073544;28;20221;-71
2022/01/19 11:10:55;;;;;;;10.23;8.33;;;;;;;3.55;84.51;101516.66;5078519;28;20220;-72
2022/01/19 11:13:28;;;;;;;6.67;5.97;;;;;;;3.58;84.64;101510.47;5078970;28;20209;-71
2022/01/19 11:15:57;;;;;;;5.53;5.03;;;;;;;3.59;83.88;101499.88;5080531;28;20193;-71
2022/01/19 11:18:26;;;;;;;5.80;5.20;;;;;;;3.60;84.13;101498.97;5075859;28;20208;-70
2022/01/19 11:20:54;;;;;;;6.23;5.63;;;;;;;3.59;84.19;101489.34;5078418;28;20314;-70
2022/01/19 11:23:30;;;;;;;8.07;7.27;;;;;;;3.61;83.77;101490.16;5076963;28;20200;-69
2022/01/19 11:26:00;;;;;;;11.17;8.87;;;;;;;3.64;83.84;101478.72;5079918;28;20200;-68
2022/01/19 11:28:34;;;;;;;7.43;6.50;;;;;;;3.66;83.36;101475.16;5076754;28;20224;-70
2022/01/19 11:31:05;;;;;;;11.43;8.60;;;;;;;3.66;83.65;101483.06;5080594;28;20209;-70
2022/01/19 11:33:33;;;;;;;9.37;7.93;;;;;;;3.68;82.80;101475.13;5089704;28;20657;-69
2022/01/19 11:36:02;;;;;;;9.27;6.83;;;;;;;3.66;82.69;101476.91;5078384;28;20212;-69
2022/01/19 11:38:38;;;;;;;9.10;7.63;;;;;;;3.65;82.83;101467.28;5081567;28;20204;-69
2022/01/19 11:41:37;;;;;;;14.80;10.63;;;;;;;3.63;82.96;101466.44;5075311;28;20212;-72
2022/01/19 11:44:05;;;;;;;12.70;7.70;;;;;;;3.65;83.11;101485.72;5087821;28;20200;-69
2022/01/19 11:46:38;;;;;;;8.57;6.47;;;;;;;3.62;82.18;101481.38;5077631;28;20674;-72
2022/01/19 11:49:07;;;;;;;8.93;6.17;;;;;;;3.64;82.37;101479.56;5074580;28;20756;-69
2022/01/19 11:51:37;;;;;;;9.67;8.17;;;;;;;3.64;82.14;101473.44;5075879;28;20208;-71
2022/01/19 11:54:11;;;;;;;6.67;6.07;;;;;;;3.64;82.43;101458.50;5078414;28;20215;-74
2022/01/19 11:57:10;;;;;;;6.40;5.80;;;;;;;3.64;82.14;101461.13;5077713;28;20204;-70
2022/01/19 12:00:06;;;;;;;5.57;5.00;;;;;;;3.65;81.97;101446.19;5074230;28;20235;-72
2022/01/19 12:02:43;;;;;;;6.90;6.20;;;;;;;3.63;82.07;101434.81;5077666;28;20200;-72
2022/01/19 12:05:20;;;;;;;6.80;6.20;;;;;;;3.64;81.64;101444.47;5072622;28;20559;-70
2022/01/19 12:07:49;;;;;;;7.13;6.43;;;;;;;3.63;82.04;101429.56;5073805;28;20201;-69
2022/01/19 12:10:19;;;;;;;8.80;7.87;;;;;;;3.62;81.63;101412.03;5080544;28;20235;-70
2022/01/19 12:12:56;;;;;;;9.97;9.03;;;;;;;3.61;81.80;101400.63;5075290;28;20213;-69
2022/01/19 12:15:49;;;;;;;9.00;8.10;;;;;;;3.62;81.20;101388.31;5073200;28;20200;-69
2022/01/19 12:18:43;;;;;;;6.87;6.27;;;;;;;3.64;81.56;101383.88;5081243;28;20209;-67
2022/01/19 12:21:11;;;;;;;6.67;5.97;;;;;;;3.62;81.02;101362.84;5072882;28;20216;-69
2022/01/19 12:23:39;;;;;;;6.83;6.13;;;;;;;3.63;81.08;101355.81;5074350;28;20286;-72
2022/01/19 12:26:09;;;;;;;7.10;6.40;;;;;;;3.63;81.19;101361.94;5070330;28;20571;-69
2022/01/19 12:28:45;;;;;;;8.37;7.57;;;;;;;3.59;80.89;101348.88;5072195;28;20713;-70
2022/01/19 12:31:31;;;;;;;8.17;7.40;;;;;;;3.58;81.04;101345.41;5070392;28;20677;-69
2022/01/19 12:34:20;;;;;;;6.20;5.30;;;;;;;3.62;80.90;101341.78;5073109;28;20216;-71
2022/01/19 12:36:50;;;;;;;9.17;7.60;;;;;;;3.60;80.30;101332.16;5076388;28;20942;-69
2022/01/19 12:39:37;;;;;;;8.20;7.40;;;;;;;3.60;80.49;101324.25;5073885;28;20248;-68